sensor_id;sensor_type;location;lat;lon;timestamp;P1;durP1;ratioP1;P2;durP2;ratioP2
10442;SDS011;5269;51.146;16.986;2022-11-13T00:28:20;19.17;;;12.02;;
10442;SDS011;5269;51.146;16.986;2022-11-13T00:37:53;19.92;;;12.80;;
10442;SDS011;5269;51.146;16.986;2022-11-13T00:40:20;19.05;;;13.35;;
10442;SDS011;5269;51.146;16.986;2022-11-13T00:42:47;20.25;;;12.95;;
10442;SDS011;5269;51.146;16.986;2022-11-13T00:45:15;20.17;;;13.07;;
10442;SDS011;5269;51.146;16.986;2022-11-13T00:57:24;17.27;;;11.48;;
10442;SDS011;5269;51.146;16.986;2022-11-13T01:52:07;19.27;;;11.02;;
10442;SDS011;5269;51.146;16.986;2022-11-13T01:58:01;17.30;;;9.52;;
10442;SDS011;5269;51.146;16.986;2022-11-13T02:00:31;17.77;;;10.35;;
10442;SDS011;5269;51.146;16.986;2022-11-13T02:06:25;15.32;;;10.18;;
10442;SDS011;5269;51.146;16.986;2022-11-13T02:08:55;15.48;;;10.32;;
10442;SDS011;5269;51.146;16.986;2022-11-13T02:11:23;17.08;;;11.30;;
10442;SDS011;5269;51.146;16.986;2022-11-13T02:13:52;16.27;;;10.40;;
10442;SDS011;5269;51.146;16.986;2022-11-13T02:19:56;15.68;;;9.85;;
10442;SDS011;5269;51.146;16.986;2022-11-13T02:32:40;18.60;;;11.25;;
10442;SDS011;5269;51.146;16.986;2022-11-13T02:35:10;18.70;;;11.15;;
10442;SDS011;5269;51.146;16.986;2022-11-13T02:37:40;18.35;;;12.75;;
10442;SDS011;5269;51.146;16.986;2022-11-13T02:43:51;20.08;;;12.07;;
10442;SDS011;5269;51.146;16.986;2022-11-13T02:49:49;20.02;;;13.57;;
10442;SDS011;5269;51.146;16.986;2022-11-13T02:55:52;25.88;;;15.98;;
10442;SDS011;5269;51.146;16.986;2022-11-13T03:01:51;25.05;;;16.17;;
10442;SDS011;5269;51.146;16.986;2022-11-13T03:08:03;23.73;;;15.00;;
10442;SDS011;5269;51.146;16.986;2022-11-13T03:14:01;22.13;;;13.00;;
10442;SDS011;5269;51.146;16.986;2022-11-13T03:16:30;21.23;;;13.18;;
10442;SDS011;5269;51.146;16.986;2022-11-13T03:18:57;20.20;;;11.95;;
10442;SDS011;5269;51.146;16.986;2022-11-13T03:21:24;19.25;;;12.27;;
10442;SDS011;5269;51.146;16.986;2022-11-13T03:23:55;21.55;;;12.80;;
10442;SDS011;5269;51.146;16.986;2022-11-13T03:29:44;18.88;;;11.60;;
10442;SDS011;5269;51.146;16.986;2022-11-13T03:39:04;21.88;;;12.52;;
10442;SDS011;5269;51.146;16.986;2022-11-13T03:44:53;21.50;;;12.48;;
10442;SDS011;5269;51.146;16.986;2022-11-13T03:56:56;18.58;;;12.15;;
10442;SDS011;5269;51.146;16.986;2022-11-13T04:09:09;19.60;;;12.18;;
10442;SDS011;5269;51.146;16.986;2022-11-13T04:15:06;17.98;;;12.88;;
10442;SDS011;5269;51.146;16.986;2022-11-13T04:20:57;20.02;;;12.93;;
10442;SDS011;5269;51.146;16.986;2022-11-13T04:26:46;23.27;;;14.20;;
10442;SDS011;5269;51.146;16.986;2022-11-13T04:32:55;17.85;;;13.20;;
10442;SDS011;5269;51.146;16.986;2022-11-13T04:38:54;17.45;;;12.20;;
10442;SDS011;5269;51.146;16.986;2022-11-13T04:41:25;18.73;;;12.35;;
10442;SDS011;5269;51.146;16.986;2022-11-13T04:47:42;18.42;;;12.57;;
10442;SDS011;5269;51.146;16.986;2022-11-13T04:53:32;20.40;;;12.50;;
10442;SDS011;5269;51.146;16.986;2022-11-13T05:06:00;19.08;;;13.35;;
10442;SDS011;5269;51.146;16.986;2022-11-13T05:12:06;20.42;;;13.38;;
10442;SDS011;5269;51.146;16.986;2022-11-13T05:18:00;18.88;;;12.98;;
10442;SDS011;5269;51.146;16.986;2022-11-13T05:24:04;19.40;;;12.98;;
10442;SDS011;5269;51.146;16.986;2022-11-13T05:30:02;19.65;;;13.55;;
10442;SDS011;5269;51.146;16.986;2022-11-13T05:42:39;20.20;;;13.38;;
10442;SDS011;5269;51.146;16.986;2022-11-13T05:45:07;21.27;;;15.00;;
10442;SDS011;5269;51.146;16.986;2022-11-13T05:51:00;22.02;;;13.00;;
10442;SDS011;5269;51.146;16.986;2022-11-13T05:53:28;20.83;;;14.13;;
10442;SDS011;5269;51.146;16.986;2022-11-13T05:56:11;22.85;;;15.02;;
10442;SDS011;5269;51.146;16.986;2022-11-13T06:02:07;20.42;;;14.32;;
10442;SDS011;5269;51.146;16.986;2022-11-13T06:04:34;21.92;;;13.23;;
10442;SDS011;5269;51.146;16.986;2022-11-13T06:10:23;21.50;;;14.18;;
10442;SDS011;5269;51.146;16.986;2022-11-13T06:16:14;19.52;;;12.68;;
10442;SDS011;5269;51.146;16.986;2022-11-13T06:18:44;20.10;;;13.85;;
10442;SDS011;5269;51.146;16.986;2022-11-13T06:21:12;18.42;;;12.55;;
10442;SDS011;5269;51.146;16.986;2022-11-13T06:23:59;19.70;;;12.30;;
10442;SDS011;5269;51.146;16.986;2022-11-13T06:30:02;23.05;;;14.60;;
10442;SDS011;5269;51.146;16.986;2022-11-13T06:32:31;20.38;;;13.38;;
10442;SDS011;5269;51.146;16.986;2022-11-13T06:35:07;25.75;;;15.50;;
10442;SDS011;5269;51.146;16.986;2022-11-13T06:37:36;22.85;;;14.63;;
10442;SDS011;5269;51.146;16.986;2022-11-13T06:40:05;21.40;;;14.27;;
10442;SDS011;5269;51.146;16.986;2022-11-13T06:42:33;22.63;;;15.55;;
10442;SDS011;5269;51.146;16.986;2022-11-13T06:45:00;23.23;;;15.68;;
10442;SDS011;5269;51.146;16.986;2022-11-13T06:47:32;25.23;;;16.67;;
10442;SDS011;5269;51.146;16.986;2022-11-13T06:50:01;26.40;;;17.10;;
10442;SDS011;5269;51.146;16.986;2022-11-13T06:52:32;24.98;;;16.25;;
10442;SDS011;5269;51.146;16.986;2022-11-13T06:55:01;28.00;;;17.40;;
10442;SDS011;5269;51.146;16.986;2022-11-13T06:57:34;24.20;;;16.77;;
10442;SDS011;5269;51.146;16.986;2022-11-13T07:00:01;27.10;;;17.63;;
10442;SDS011;5269;51.146;16.986;2022-11-13T07:06:00;25.92;;;16.48;;
10442;SDS011;5269;51.146;16.986;2022-11-13T07:08:29;29.60;;;18.60;;
10442;SDS011;5269;51.146;16.986;2022-11-13T07:10:57;26.20;;;17.77;;
10442;SDS011;5269;51.146;16.986;2022-11-13T07:17:07;28.75;;;18.42;;
10442;SDS011;5269;51.146;16.986;2022-11-13T07:19:34;29.55;;;18.13;;
10442;SDS011;5269;51.146;16.986;2022-11-13T07:22:07;29.55;;;17.95;;
10442;SDS011;5269;51.146;16.986;2022-11-13T07:28:01;27.80;;;17.60;;
10442;SDS011;5269;51.146;16.986;2022-11-13T07:30:29;29.08;;;18.55;;
10442;SDS011;5269;51.146;16.986;2022-11-13T07:33:00;27.63;;;17.98;;
10442;SDS011;5269;51.146;16.986;2022-11-13T07:35:27;30.35;;;18.30;;
10442;SDS011;5269;51.146;16.986;2022-11-13T07:37:54;30.75;;;19.42;;
10442;SDS011;5269;51.146;16.986;2022-11-13T07:40:21;31.88;;;19.02;;
10442;SDS011;5269;51.146;16.986;2022-11-13T07:52:34;28.27;;;18.27;;
10442;SDS011;5269;51.146;16.986;2022-11-13T07:55:34;32.30;;;18.83;;
10442;SDS011;5269;51.146;16.986;2022-11-13T07:58:01;28.65;;;17.95;;
10442;SDS011;5269;51.146;16.986;2022-11-13T08:00:30;29.10;;;18.88;;
10442;SDS011;5269;51.146;16.986;2022-11-13T08:03:04;28.50;;;18.48;;
10442;SDS011;5269;51.146;16.986;2022-11-13T08:05:33;29.08;;;18.92;;
10442;SDS011;5269;51.146;16.986;2022-11-13T08:08:14;28.65;;;18.98;;
10442;SDS011;5269;51.146;16.986;2022-11-13T08:10:49;29.63;;;18.73;;
10442;SDS011;5269;51.146;16.986;2022-11-13T08:13:16;33.22;;;19.38;;
10442;SDS011;5269;51.146;16.986;2022-11-13T08:15:42;29.15;;;19.13;;
10442;SDS011;5269;51.146;16.986;2022-11-13T08:18:13;30.63;;;18.70;;
10442;SDS011;5269;51.146;16.986;2022-11-13T08:20:40;27.60;;;17.58;;
10442;SDS011;5269;51.146;16.986;2022-11-13T08:23:09;30.23;;;18.70;;
10442;SDS011;5269;51.146;16.986;2022-11-13T08:25:36;29.92;;;18.05;;
10442;SDS011;5269;51.146;16.986;2022-11-13T08:28:08;25.77;;;17.40;;
10442;SDS011;5269;51.146;16.986;2022-11-13T08:30:36;29.75;;;18.02;;
10442;SDS011;5269;51.146;16.986;2022-11-13T08:33:03;28.08;;;18.08;;
10442;SDS011;5269;51.146;16.986;2022-11-13T08:35:34;27.58;;;16.98;;
10442;SDS011;5269;51.146;16.986;2022-11-13T08:41:23;27.30;;;18.20;;
10442;SDS011;5269;51.146;16.986;2022-11-13T08:43:52;29.02;;;17.73;;
10442;SDS011;5269;51.146;16.986;2022-11-13T08:46:22;29.63;;;18.15;;
10442;SDS011;5269;51.146;16.986;2022-11-13T08:48:50;27.85;;;18.10;;
10442;SDS011;5269;51.146;16.986;2022-11-13T08:51:19;26.35;;;17.42;;
10442;SDS011;5269;51.146;16.986;2022-11-13T08:53:46;29.30;;;18.25;;
10442;SDS011;5269;51.146;16.986;2022-11-13T08:59:35;28.30;;;18.15;;
10442;SDS011;5269;51.146;16.986;2022-11-13T09:02:03;28.30;;;17.92;;
10442;SDS011;5269;51.146;16.986;2022-11-13T09:08:05;27.80;;;17.92;;
10442;SDS011;5269;51.146;16.986;2022-11-13T09:30:07;33.35;;;19.77;;
10442;SDS011;5269;51.146;16.986;2022-11-13T09:35:51;35.45;;;20.55;;
10442;SDS011;5269;51.146;16.986;2022-11-13T09:38:21;32.38;;;18.77;;
10442;SDS011;5269;51.146;16.986;2022-11-13T09:41:10;30.98;;;18.90;;
10442;SDS011;5269;51.146;16.986;2022-11-13T09:43:42;29.85;;;20.27;;
10442;SDS011;5269;51.146;16.986;2022-11-13T09:46:24;32.90;;;20.30;;
10442;SDS011;5269;51.146;16.986;2022-11-13T09:52:25;31.23;;;19.05;;
10442;SDS011;5269;51.146;16.986;2022-11-13T09:55:00;31.83;;;19.20;;
10442;SDS011;5269;51.146;16.986;2022-11-13T09:57:39;34.53;;;20.58;;
10442;SDS011;5269;51.146;16.986;2022-11-13T10:00:34;29.70;;;18.90;;
10442;SDS011;5269;51.146;16.986;2022-11-13T10:05:42;34.50;;;20.80;;
10442;SDS011;5269;51.146;16.986;2022-11-13T10:08:24;31.30;;;20.73;;
10442;SDS011;5269;51.146;16.986;2022-11-13T10:11:12;32.80;;;20.73;;
10442;SDS011;5269;51.146;16.986;2022-11-13T10:14:08;33.22;;;21.80;;
10442;SDS011;5269;51.146;16.986;2022-11-13T10:19:44;30.08;;;20.35;;
10442;SDS011;5269;51.146;16.986;2022-11-13T10:22:19;31.88;;;20.98;;
10442;SDS011;5269;51.146;16.986;2022-11-13T10:24:51;39.03;;;21.63;;
10442;SDS011;5269;51.146;16.986;2022-11-13T10:27:25;35.50;;;21.17;;
10442;SDS011;5269;51.146;16.986;2022-11-13T10:29:53;35.72;;;22.15;;
10442;SDS011;5269;51.146;16.986;2022-11-13T10:32:20;34.97;;;21.42;;
10442;SDS011;5269;51.146;16.986;2022-11-13T10:34:49;36.50;;;22.70;;
10442;SDS011;5269;51.146;16.986;2022-11-13T10:37:23;36.67;;;22.98;;
10442;SDS011;5269;51.146;16.986;2022-11-13T10:39:59;34.13;;;20.80;;
10442;SDS011;5269;51.146;16.986;2022-11-13T10:42:26;37.85;;;21.60;;
10442;SDS011;5269;51.146;16.986;2022-11-13T10:45:02;35.45;;;22.60;;
10442;SDS011;5269;51.146;16.986;2022-11-13T10:47:30;38.10;;;24.30;;
10442;SDS011;5269;51.146;16.986;2022-11-13T10:50:07;39.80;;;23.88;;
10442;SDS011;5269;51.146;16.986;2022-11-13T10:52:43;40.25;;;24.85;;
10442;SDS011;5269;51.146;16.986;2022-11-13T10:55:16;42.30;;;24.70;;
10442;SDS011;5269;51.146;16.986;2022-11-13T10:57:53;42.88;;;24.77;;
10442;SDS011;5269;51.146;16.986;2022-11-13T11:00:24;42.25;;;24.17;;
10442;SDS011;5269;51.146;16.986;2022-11-13T11:02:55;40.45;;;23.70;;
10442;SDS011;5269;51.146;16.986;2022-11-13T11:05:22;40.80;;;23.20;;
10442;SDS011;5269;51.146;16.986;2022-11-13T11:07:50;39.25;;;22.60;;
10442;SDS011;5269;51.146;16.986;2022-11-13T11:10:21;37.28;;;22.58;;
10442;SDS011;5269;51.146;16.986;2022-11-13T11:12:56;36.95;;;22.60;;
10442;SDS011;5269;51.146;16.986;2022-11-13T11:15:29;38.13;;;22.77;;
10442;SDS011;5269;51.146;16.986;2022-11-13T11:18:04;38.97;;;23.38;;
10442;SDS011;5269;51.146;16.986;2022-11-13T11:20:42;44.83;;;26.80;;
10442;SDS011;5269;51.146;16.986;2022-11-13T11:23:16;45.13;;;25.40;;
10442;SDS011;5269;51.146;16.986;2022-11-13T11:25:49;42.67;;;25.73;;
10442;SDS011;5269;51.146;16.986;2022-11-13T11:28:24;43.15;;;24.42;;
10442;SDS011;5269;51.146;16.986;2022-11-13T11:31:03;37.97;;;22.92;;
10442;SDS011;5269;51.146;16.986;2022-11-13T11:33:45;46.45;;;24.55;;
10442;SDS011;5269;51.146;16.986;2022-11-13T11:36:20;36.22;;;22.20;;
10442;SDS011;5269;51.146;16.986;2022-11-13T11:39:08;37.60;;;22.38;;
10442;SDS011;5269;51.146;16.986;2022-11-13T11:44:56;34.50;;;21.55;;
10442;SDS011;5269;51.146;16.986;2022-11-13T11:47:40;35.65;;;21.83;;
10442;SDS011;5269;51.146;16.986;2022-11-13T11:50:13;33.95;;;20.30;;
10442;SDS011;5269;51.146;16.986;2022-11-13T11:52:55;37.72;;;22.85;;
10442;SDS011;5269;51.146;16.986;2022-11-13T11:55:36;35.97;;;22.50;;
10442;SDS011;5269;51.146;16.986;2022-11-13T11:58:20;34.22;;;20.48;;
10442;SDS011;5269;51.146;16.986;2022-11-13T12:01:03;32.90;;;21.17;;
10442;SDS011;5269;51.146;16.986;2022-11-13T12:03:43;36.17;;;21.17;;
10442;SDS011;5269;51.146;16.986;2022-11-13T12:06:46;36.22;;;20.95;;
10442;SDS011;5269;51.146;16.986;2022-11-13T12:09:22;34.00;;;21.50;;
10442;SDS011;5269;51.146;16.986;2022-11-13T12:11:58;35.75;;;21.27;;
10442;SDS011;5269;51.146;16.986;2022-11-13T12:14:35;37.60;;;21.83;;
10442;SDS011;5269;51.146;16.986;2022-11-13T12:17:16;35.38;;;21.98;;
10442;SDS011;5269;51.146;16.986;2022-11-13T12:20:04;38.15;;;23.02;;
10442;SDS011;5269;51.146;16.986;2022-11-13T12:22:45;44.30;;;24.02;;
10442;SDS011;5269;51.146;16.986;2022-11-13T12:25:20;42.42;;;23.38;;
10442;SDS011;5269;51.146;16.986;2022-11-13T12:28:02;42.03;;;24.55;;
10442;SDS011;5269;51.146;16.986;2022-11-13T12:30:43;42.75;;;24.23;;
10442;SDS011;5269;51.146;16.986;2022-11-13T12:33:22;44.13;;;24.88;;
10442;SDS011;5269;51.146;16.986;2022-11-13T12:36:09;45.72;;;25.10;;
10442;SDS011;5269;51.146;16.986;2022-11-13T12:38:39;43.15;;;24.45;;
10442;SDS011;5269;51.146;16.986;2022-11-13T12:41:17;45.45;;;24.25;;
10442;SDS011;5269;51.146;16.986;2022-11-13T12:43:58;42.90;;;24.52;;
10442;SDS011;5269;51.146;16.986;2022-11-13T12:46:40;37.63;;;22.20;;
10442;SDS011;5269;51.146;16.986;2022-11-13T12:49:24;43.75;;;23.52;;
10442;SDS011;5269;51.146;16.986;2022-11-13T12:51:55;44.30;;;24.48;;
10442;SDS011;5269;51.146;16.986;2022-11-13T12:54:23;43.28;;;23.67;;
10442;SDS011;5269;51.146;16.986;2022-11-13T12:56:51;41.90;;;23.40;;
10442;SDS011;5269;51.146;16.986;2022-11-13T12:59:30;40.58;;;23.50;;
10442;SDS011;5269;51.146;16.986;2022-11-13T13:02:07;45.92;;;24.55;;
10442;SDS011;5269;51.146;16.986;2022-11-13T13:04:51;42.60;;;22.85;;
10442;SDS011;5269;51.146;16.986;2022-11-13T13:07:34;48.50;;;25.00;;
10442;SDS011;5269;51.146;16.986;2022-11-13T13:10:22;41.50;;;23.58;;
10442;SDS011;5269;51.146;16.986;2022-11-13T13:13:00;48.88;;;25.80;;
10442;SDS011;5269;51.146;16.986;2022-11-13T13:15:35;43.90;;;23.48;;
10442;SDS011;5269;51.146;16.986;2022-11-13T13:18:05;42.55;;;23.00;;
10442;SDS011;5269;51.146;16.986;2022-11-13T13:21:01;40.35;;;22.40;;
10442;SDS011;5269;51.146;16.986;2022-11-13T13:23:33;40.15;;;23.35;;
10442;SDS011;5269;51.146;16.986;2022-11-13T13:26:05;41.50;;;23.15;;
10442;SDS011;5269;51.146;16.986;2022-11-13T13:28:41;41.97;;;23.40;;
10442;SDS011;5269;51.146;16.986;2022-11-13T13:31:22;44.42;;;25.23;;
10442;SDS011;5269;51.146;16.986;2022-11-13T13:34:00;43.28;;;24.50;;
10442;SDS011;5269;51.146;16.986;2022-11-13T13:36:57;42.45;;;24.25;;
10442;SDS011;5269;51.146;16.986;2022-11-13T13:39:37;47.88;;;25.52;;
10442;SDS011;5269;51.146;16.986;2022-11-13T13:42:21;43.28;;;25.00;;
10442;SDS011;5269;51.146;16.986;2022-11-13T13:49:00;44.28;;;24.02;;
10442;SDS011;5269;51.146;16.986;2022-11-13T13:51:33;46.47;;;24.77;;
10442;SDS011;5269;51.146;16.986;2022-11-13T13:54:05;47.15;;;25.25;;
10442;SDS011;5269;51.146;16.986;2022-11-13T13:56:40;40.30;;;23.85;;
10442;SDS011;5269;51.146;16.986;2022-11-13T13:59:12;44.95;;;24.55;;
10442;SDS011;5269;51.146;16.986;2022-11-13T14:01:51;44.90;;;24.92;;
10442;SDS011;5269;51.146;16.986;2022-11-13T14:04:19;41.30;;;24.35;;
10442;SDS011;5269;51.146;16.986;2022-11-13T14:06:47;43.42;;;24.27;;
10442;SDS011;5269;51.146;16.986;2022-11-13T14:09:16;42.45;;;24.33;;
10442;SDS011;5269;51.146;16.986;2022-11-13T14:12:02;41.28;;;25.00;;
10442;SDS011;5269;51.146;16.986;2022-11-13T14:14:52;40.13;;;22.67;;
10442;SDS011;5269;51.146;16.986;2022-11-13T14:17:22;43.95;;;23.52;;
10442;SDS011;5269;51.146;16.986;2022-11-13T14:19:50;42.08;;;23.35;;
10442;SDS011;5269;51.146;16.986;2022-11-13T14:22:17;41.72;;;22.88;;
10442;SDS011;5269;51.146;16.986;2022-11-13T14:24:49;43.63;;;23.33;;
10442;SDS011;5269;51.146;16.986;2022-11-13T14:27:30;38.13;;;23.85;;
10442;SDS011;5269;51.146;16.986;2022-11-13T14:30:02;40.90;;;22.48;;
10442;SDS011;5269;51.146;16.986;2022-11-13T14:32:37;40.15;;;22.27;;
10442;SDS011;5269;51.146;16.986;2022-11-13T14:35:15;40.20;;;22.83;;
10442;SDS011;5269;51.146;16.986;2022-11-13T14:37:45;46.35;;;23.98;;
10442;SDS011;5269;51.146;16.986;2022-11-13T14:40:14;38.88;;;21.83;;
10442;SDS011;5269;51.146;16.986;2022-11-13T14:42:51;42.08;;;21.77;;
10442;SDS011;5269;51.146;16.986;2022-11-13T14:45:26;43.00;;;22.70;;
10442;SDS011;5269;51.146;16.986;2022-11-13T14:55:20;42.10;;;21.13;;
10442;SDS011;5269;51.146;16.986;2022-11-13T14:57:50;39.63;;;21.40;;
10442;SDS011;5269;51.146;16.986;2022-11-13T15:03:39;37.83;;;21.48;;
10442;SDS011;5269;51.146;16.986;2022-11-13T15:09:35;38.42;;;21.08;;
10442;SDS011;5269;51.146;16.986;2022-11-13T15:22:33;40.40;;;21.20;;
10442;SDS011;5269;51.146;16.986;2022-11-13T15:28:30;44.38;;;22.92;;
10442;SDS011;5269;51.146;16.986;2022-11-13T15:34:19;47.65;;;24.27;;
10442;SDS011;5269;51.146;16.986;2022-11-13T15:40:10;45.35;;;23.13;;
10442;SDS011;5269;51.146;16.986;2022-11-13T15:46:08;50.25;;;24.15;;
10442;SDS011;5269;51.146;16.986;2022-11-13T15:52:03;40.50;;;23.35;;
10442;SDS011;5269;51.146;16.986;2022-11-13T15:58:02;43.55;;;23.55;;
10442;SDS011;5269;51.146;16.986;2022-11-13T16:03:53;44.10;;;23.33;;
10442;SDS011;5269;51.146;16.986;2022-11-13T16:49:12;38.47;;;21.63;;
10442;SDS011;5269;51.146;16.986;2022-11-13T16:51:44;42.95;;;22.42;;
10442;SDS011;5269;51.146;16.986;2022-11-13T16:54:17;42.33;;;22.27;;
10442;SDS011;5269;51.146;16.986;2022-11-13T16:57:03;42.08;;;21.52;;
10442;SDS011;5269;51.146;16.986;2022-11-13T16:59:30;44.97;;;23.52;;
10442;SDS011;5269;51.146;16.986;2022-11-13T17:02:15;41.30;;;21.98;;
10442;SDS011;5269;51.146;16.986;2022-11-13T17:04:43;40.22;;;22.98;;
10442;SDS011;5269;51.146;16.986;2022-11-13T17:07:13;44.70;;;24.85;;
10442;SDS011;5269;51.146;16.986;2022-11-13T17:09:43;47.70;;;24.42;;
10442;SDS011;5269;51.146;16.986;2022-11-13T17:12:16;50.92;;;25.33;;
10442;SDS011;5269;51.146;16.986;2022-11-13T17:14:45;43.17;;;23.85;;
10442;SDS011;5269;51.146;16.986;2022-11-13T17:20:09;49.30;;;24.25;;
10442;SDS011;5269;51.146;16.986;2022-11-13T17:22:40;47.90;;;25.08;;
10442;SDS011;5269;51.146;16.986;2022-11-13T17:25:12;45.70;;;24.92;;
10442;SDS011;5269;51.146;16.986;2022-11-13T17:27:40;47.33;;;24.83;;
10442;SDS011;5269;51.146;16.986;2022-11-13T17:30:07;49.70;;;25.52;;
10442;SDS011;5269;51.146;16.986;2022-11-13T17:32:36;48.17;;;26.45;;
10442;SDS011;5269;51.146;16.986;2022-11-13T17:35:04;44.88;;;25.13;;
10442;SDS011;5269;51.146;16.986;2022-11-13T17:37:32;48.58;;;26.85;;
10442;SDS011;5269;51.146;16.986;2022-11-13T17:39:59;47.80;;;26.48;;
10442;SDS011;5269;51.146;16.986;2022-11-13T17:42:26;49.30;;;26.00;;
10442;SDS011;5269;51.146;16.986;2022-11-13T17:44:53;50.70;;;26.20;;
10442;SDS011;5269;51.146;16.986;2022-11-13T17:47:22;47.85;;;26.63;;
10442;SDS011;5269;51.146;16.986;2022-11-13T17:49:49;50.38;;;26.25;;
10442;SDS011;5269;51.146;16.986;2022-11-13T17:52:19;49.85;;;26.50;;
10442;SDS011;5269;51.146;16.986;2022-11-13T17:54:45;52.35;;;28.63;;
10442;SDS011;5269;51.146;16.986;2022-11-13T17:57:12;54.30;;;27.77;;
10442;SDS011;5269;51.146;16.986;2022-11-13T17:59:39;50.78;;;27.40;;
10442;SDS011;5269;51.146;16.986;2022-11-13T18:02:07;53.10;;;27.13;;
10442;SDS011;5269;51.146;16.986;2022-11-13T18:04:36;46.58;;;25.90;;
10442;SDS011;5269;51.146;16.986;2022-11-13T18:07:03;48.70;;;26.88;;
10442;SDS011;5269;51.146;16.986;2022-11-13T18:09:31;45.08;;;26.38;;
10442;SDS011;5269;51.146;16.986;2022-11-13T18:11:59;50.10;;;26.42;;
10442;SDS011;5269;51.146;16.986;2022-11-13T18:14:28;45.03;;;25.98;;
10442;SDS011;5269;51.146;16.986;2022-11-13T18:16:58;43.13;;;25.00;;
10442;SDS011;5269;51.146;16.986;2022-11-13T18:19:25;43.03;;;24.55;;
10442;SDS011;5269;51.146;16.986;2022-11-13T18:21:52;40.70;;;24.58;;
10442;SDS011;5269;51.146;16.986;2022-11-13T18:24:22;43.22;;;24.33;;
10442;SDS011;5269;51.146;16.986;2022-11-13T18:26:51;46.33;;;24.88;;
10442;SDS011;5269;51.146;16.986;2022-11-13T18:29:18;43.50;;;24.17;;
10442;SDS011;5269;51.146;16.986;2022-11-13T18:31:45;46.15;;;24.25;;
10442;SDS011;5269;51.146;16.986;2022-11-13T18:34:12;52.13;;;26.83;;
10442;SDS011;5269;51.146;16.986;2022-11-13T18:36:41;46.17;;;25.55;;
10442;SDS011;5269;51.146;16.986;2022-11-13T18:39:08;42.47;;;24.60;;
10442;SDS011;5269;51.146;16.986;2022-11-13T18:41:36;43.78;;;24.05;;
10442;SDS011;5269;51.146;16.986;2022-11-13T18:44:04;45.20;;;24.98;;
10442;SDS011;5269;51.146;16.986;2022-11-13T18:46:31;52.10;;;26.42;;
10442;SDS011;5269;51.146;16.986;2022-11-13T18:48:58;51.85;;;26.63;;
10442;SDS011;5269;51.146;16.986;2022-11-13T18:51:28;52.28;;;26.98;;
10442;SDS011;5269;51.146;16.986;2022-11-13T18:56:45;49.70;;;26.67;;
10442;SDS011;5269;51.146;16.986;2022-11-13T18:59:28;52.25;;;27.77;;
10442;SDS011;5269;51.146;16.986;2022-11-13T19:02:12;55.53;;;27.67;;
10442;SDS011;5269;51.146;16.986;2022-11-13T19:04:39;52.75;;;27.55;;
10442;SDS011;5269;51.146;16.986;2022-11-13T19:07:08;53.50;;;26.92;;
10442;SDS011;5269;51.146;16.986;2022-11-13T19:09:36;52.67;;;27.30;;
10442;SDS011;5269;51.146;16.986;2022-11-13T19:12:04;52.55;;;28.55;;
10442;SDS011;5269;51.146;16.986;2022-11-13T19:14:35;52.47;;;29.48;;
10442;SDS011;5269;51.146;16.986;2022-11-13T19:17:02;56.35;;;27.90;;
10442;SDS011;5269;51.146;16.986;2022-11-13T19:19:30;52.13;;;28.05;;
10442;SDS011;5269;51.146;16.986;2022-11-13T19:21:57;55.92;;;30.17;;
10442;SDS011;5269;51.146;16.986;2022-11-13T19:24:23;56.35;;;30.33;;
10442;SDS011;5269;51.146;16.986;2022-11-13T19:26:50;61.15;;;29.48;;
10442;SDS011;5269;51.146;16.986;2022-11-13T19:29:17;58.10;;;29.17;;
10442;SDS011;5269;51.146;16.986;2022-11-13T19:31:46;54.83;;;28.50;;
10442;SDS011;5269;51.146;16.986;2022-11-13T19:34:14;55.88;;;28.95;;
10442;SDS011;5269;51.146;16.986;2022-11-13T19:36:41;58.78;;;30.75;;
10442;SDS011;5269;51.146;16.986;2022-11-13T19:39:09;60.05;;;29.20;;
10442;SDS011;5269;51.146;16.986;2022-11-13T19:41:36;62.95;;;30.60;;
10442;SDS011;5269;51.146;16.986;2022-11-13T19:44:03;56.92;;;29.70;;
10442;SDS011;5269;51.146;16.986;2022-11-13T19:46:30;57.85;;;29.92;;
10442;SDS011;5269;51.146;16.986;2022-11-13T19:48:59;51.72;;;28.83;;
10442;SDS011;5269;51.146;16.986;2022-11-13T19:51:26;59.33;;;28.73;;
10442;SDS011;5269;51.146;16.986;2022-11-13T19:53:53;55.58;;;29.40;;
10442;SDS011;5269;51.146;16.986;2022-11-13T19:56:22;55.25;;;29.58;;
10442;SDS011;5269;51.146;16.986;2022-11-13T19:58:50;59.95;;;30.02;;
10442;SDS011;5269;51.146;16.986;2022-11-13T20:01:18;54.35;;;29.33;;
10442;SDS011;5269;51.146;16.986;2022-11-13T20:03:46;58.60;;;29.65;;
10442;SDS011;5269;51.146;16.986;2022-11-13T20:06:15;55.85;;;30.05;;
10442;SDS011;5269;51.146;16.986;2022-11-13T20:08:43;57.00;;;28.38;;
10442;SDS011;5269;51.146;16.986;2022-11-13T20:11:15;53.28;;;27.90;;
10442;SDS011;5269;51.146;16.986;2022-11-13T20:13:42;55.35;;;27.80;;
10442;SDS011;5269;51.146;16.986;2022-11-13T20:16:11;54.03;;;29.00;;
10442;SDS011;5269;51.146;16.986;2022-11-13T20:18:39;56.92;;;28.98;;
10442;SDS011;5269;51.146;16.986;2022-11-13T20:21:07;51.63;;;28.65;;
10442;SDS011;5269;51.146;16.986;2022-11-13T20:23:36;49.13;;;27.40;;
10442;SDS011;5269;51.146;16.986;2022-11-13T20:26:03;51.53;;;27.73;;
10442;SDS011;5269;51.146;16.986;2022-11-13T20:28:33;52.17;;;28.58;;
10442;SDS011;5269;51.146;16.986;2022-11-13T20:31:01;58.22;;;28.70;;
10442;SDS011;5269;51.146;16.986;2022-11-13T20:33:29;50.25;;;27.42;;
10442;SDS011;5269;51.146;16.986;2022-11-13T20:35:57;53.00;;;27.98;;
10442;SDS011;5269;51.146;16.986;2022-11-13T20:38:24;55.70;;;30.35;;
10442;SDS011;5269;51.146;16.986;2022-11-13T20:40:52;61.35;;;31.98;;
10442;SDS011;5269;51.146;16.986;2022-11-13T20:43:19;64.53;;;30.75;;
10442;SDS011;5269;51.146;16.986;2022-11-13T20:45:46;57.03;;;31.92;;
10442;SDS011;5269;51.146;16.986;2022-11-13T20:48:13;59.17;;;31.40;;
10442;SDS011;5269;51.146;16.986;2022-11-13T20:50:40;58.17;;;32.80;;
10442;SDS011;5269;51.146;16.986;2022-11-13T20:53:07;67.72;;;35.00;;
10442;SDS011;5269;51.146;16.986;2022-11-13T20:55:34;53.85;;;29.40;;
10442;SDS011;5269;51.146;16.986;2022-11-13T20:58:02;54.58;;;29.67;;
10442;SDS011;5269;51.146;16.986;2022-11-13T21:00:29;58.45;;;28.63;;
10442;SDS011;5269;51.146;16.986;2022-11-13T21:02:56;57.28;;;27.05;;
10442;SDS011;5269;51.146;16.986;2022-11-13T21:05:23;57.08;;;28.58;;
10442;SDS011;5269;51.146;16.986;2022-11-13T21:07:49;56.75;;;28.80;;
10442;SDS011;5269;51.146;16.986;2022-11-13T21:10:18;56.70;;;28.83;;
10442;SDS011;5269;51.146;16.986;2022-11-13T21:12:44;54.35;;;28.83;;
10442;SDS011;5269;51.146;16.986;2022-11-13T21:15:17;54.47;;;27.92;;
10442;SDS011;5269;51.146;16.986;2022-11-13T21:17:52;48.22;;;26.85;;
10442;SDS011;5269;51.146;16.986;2022-11-13T21:20:18;54.08;;;28.67;;
10442;SDS011;5269;51.146;16.986;2022-11-13T21:22:45;51.80;;;28.52;;
10442;SDS011;5269;51.146;16.986;2022-11-13T21:25:12;49.00;;;27.42;;
10442;SDS011;5269;51.146;16.986;2022-11-13T21:27:41;56.65;;;29.77;;
10442;SDS011;5269;51.146;16.986;2022-11-13T21:30:11;56.97;;;30.73;;
10442;SDS011;5269;51.146;16.986;2022-11-13T21:32:39;63.85;;;28.67;;
10442;SDS011;5269;51.146;16.986;2022-11-13T21:35:07;60.67;;;30.27;;
10442;SDS011;5269;51.146;16.986;2022-11-13T21:37:34;58.15;;;31.17;;
10442;SDS011;5269;51.146;16.986;2022-11-13T21:40:01;59.10;;;29.77;;